sensor_id;sensor_type;location;lat;lon;timestamp;P1;durP1;ratioP1;P2;durP2;ratioP2
6561;SDS011;3314;50.890;4.722;2023-04-08T00:00:15;13.0;;;3.2;;
6561;SDS011;3314;50.890;4.722;2023-04-08T00:02:15;11.3;;;3.3;;
6561;SDS011;3314;50.890;4.722;2023-04-08T00:04:15;15.1;;;4.0;;
6561;SDS011;3314;50.890;4.722;2023-04-08T00:06:15;16.2;;;4.1;;
6561;SDS011;3314;50.890;4.722;2023-04-08T00:08:15;18.1;;;3.7;;
6561;SDS011;3314;50.890;4.722;2023-04-08T00:10:14;11.2;;;3.6;;
6561;SDS011;3314;50.890;4.722;2023-04-08T00:12:14;13.1;;;4.5;;
6561;SDS011;3314;50.890;4.722;2023-04-08T00:14:14;16.3;;;4.1;;
6561;SDS011;3314;50.890;4.722;2023-04-08T00:16:14;19.5;;;4.2;;
6561;SDS011;3314;50.890;4.722;2023-04-08T00:18:13;18.5;;;4.7;;
6561;SDS011;3314;50.890;4.722;2023-04-08T00:20:13;17.3;;;3.8;;
6561;SDS011;3314;50.890;4.722;2023-04-08T00:22:13;16.8;;;3.7;;
6561;SDS011;3314;50.890;4.722;2023-04-08T00:24:12;19.4;;;3.6;;
6561;SDS011;3314;50.890;4.722;2023-04-08T00:26:12;13.4;;;3.6;;
6561;SDS011;3314;50.890;4.722;2023-04-08T00:28:12;17.3;;;3.7;;
6561;SDS011;3314;50.890;4.722;2023-04-08T00:30:12;19.8;;;4.1;;
6561;SDS011;3314;50.890;4.722;2023-04-08T00:32:12;12.4;;;3.6;;
6561;SDS011;3314;50.890;4.722;2023-04-08T00:34:12;13.5;;;4.5;;
6561;SDS011;3314;50.890;4.722;2023-04-08T00:36:11;14.3;;;4.3;;
6561;SDS011;3314;50.890;4.722;2023-04-08T00:38:11;21.8;;;3.9;;
6561;SDS011;3314;50.890;4.722;2023-04-08T00:40:11;14.9;;;3.7;;
6561;SDS011;3314;50.890;4.722;2023-04-08T00:42:11;8.8;;;2.9;;
6561;SDS011;3314;50.890;4.722;2023-04-08T00:44:10;23.4;;;4.1;;
6561;SDS011;3314;50.890;4.722;2023-04-08T00:46:10;13.9;;;3.8;;
6561;SDS011;3314;50.890;4.722;2023-04-08T00:48:10;17.1;;;4.1;;
6561;SDS011;3314;50.890;4.722;2023-04-08T00:50:10;17.0;;;4.4;;
6561;SDS011;3314;50.890;4.722;2023-04-08T00:52:10;15.3;;;4.0;;
6561;SDS011;3314;50.890;4.722;2023-04-08T00:54:09;15.3;;;3.6;;
6561;SDS011;3314;50.890;4.722;2023-04-08T00:56:09;19.1;;;4.6;;
6561;SDS011;3314;50.890;4.722;2023-04-08T00:58:09;15.8;;;3.8;;
6561;SDS011;3314;50.890;4.722;2023-04-08T01:00:10;15.2;;;3.8;;
6561;SDS011;3314;50.890;4.722;2023-04-08T01:02:13;15.2;;;3.5;;
6561;SDS011;3314;50.890;4.722;2023-04-08T01:04:16;14.9;;;3.7;;
6561;SDS011;3314;50.890;4.722;2023-04-08T01:06:08;14.4;;;4.0;;
6561;SDS011;3314;50.890;4.722;2023-04-08T01:08:09;15.6;;;3.9;;
6561;SDS011;3314;50.890;4.722;2023-04-08T01:10:11;17.3;;;3.9;;
6561;SDS011;3314;50.890;4.722;2023-04-08T01:12:11;15.9;;;4.2;;
6561;SDS011;3314;50.890;4.722;2023-04-08T01:14:02;20.9;;;4.5;;
6561;SDS011;3314;50.890;4.722;2023-04-08T01:16:03;12.8;;;5.0;;
6561;SDS011;3314;50.890;4.722;2023-04-08T01:18:05;18.0;;;4.1;;
6561;SDS011;3314;50.890;4.722;2023-04-08T01:20:05;19.8;;;3.8;;
6561;SDS011;3314;50.890;4.722;2023-04-08T01:22:09;15.6;;;4.1;;
6561;SDS011;3314;50.890;4.722;2023-04-08T01:24:12;16.3;;;4.5;;
6561;SDS011;3314;50.890;4.722;2023-04-08T01:26:03;19.6;;;4.4;;
6561;SDS011;3314;50.890;4.722;2023-04-08T01:28:04;12.8;;;3.4;;
6561;SDS011;3314;50.890;4.722;2023-04-08T01:30:05;14.2;;;3.3;;
6561;SDS011;3314;50.890;4.722;2023-04-08T01:32:05;20.7;;;4.9;;
6561;SDS011;3314;50.890;4.722;2023-04-08T01:34:05;16.7;;;4.4;;
6561;SDS011;3314;50.890;4.722;2023-04-08T01:36:06;18.7;;;4.0;;
6561;SDS011;3314;50.890;4.722;2023-04-08T01:38:06;18.5;;;4.3;;
6561;SDS011;3314;50.890;4.722;2023-04-08T01:40:07;14.5;;;3.6;;
6561;SDS011;3314;50.890;4.722;2023-04-08T01:41:58;19.2;;;5.0;;
6561;SDS011;3314;50.890;4.722;2023-04-08T01:43:58;12.9;;;4.1;;
6561;SDS011;3314;50.890;4.722;2023-04-08T01:45:58;24.0;;;4.4;;
6561;SDS011;3314;50.890;4.722;2023-04-08T01:47:59;15.1;;;4.0;;
6561;SDS011;3314;50.890;4.722;2023-04-08T01:49:59;12.5;;;3.9;;
6561;SDS011;3314;50.890;4.722;2023-04-08T01:51:59;16.5;;;4.6;;
6561;SDS011;3314;50.890;4.722;2023-04-08T01:54:00;13.1;;;3.8;;
6561;SDS011;3314;50.890;4.722;2023-04-08T01:56:03;14.6;;;3.4;;
6561;SDS011;3314;50.890;4.722;2023-04-08T01:58:03;19.4;;;4.7;;
6561;SDS011;3314;50.890;4.722;2023-04-08T02:00:05;14.1;;;4.5;;
6561;SDS011;3314;50.890;4.722;2023-04-08T02:01:53;14.4;;;4.5;;
6561;SDS011;3314;50.890;4.722;2023-04-08T02:03:55;22.4;;;4.5;;
6561;SDS011;3314;50.890;4.722;2023-04-08T02:05:56;16.7;;;5.1;;
6561;SDS011;3314;50.890;4.722;2023-04-08T02:07:55;19.2;;;4.8;;
6561;SDS011;3314;50.890;4.722;2023-04-08T02:09:55;15.3;;;4.2;;
6561;SDS011;3314;50.890;4.722;2023-04-08T02:11:56;18.1;;;4.2;;
6561;SDS011;3314;50.890;4.722;2023-04-08T02:13:56;15.6;;;4.1;;
6561;SDS011;3314;50.890;4.722;2023-04-08T02:15:56;14.3;;;4.3;;
6561;SDS011;3314;50.890;4.722;2023-04-08T02:17:52;20.0;;;3.8;;
6561;SDS011;3314;50.890;4.722;2023-04-08T02:19:55;15.7;;;4.2;;
6561;SDS011;3314;50.890;4.722;2023-04-08T02:22:00;15.5;;;4.1;;
6561;SDS011;3314;50.890;4.722;2023-04-08T02:23:50;15.4;;;4.4;;
6561;SDS011;3314;50.890;4.722;2023-04-08T02:25:51;14.5;;;4.5;;
6561;SDS011;3314;50.890;4.722;2023-04-08T02:27:51;18.7;;;4.7;;
6561;SDS011;3314;50.890;4.722;2023-04-08T02:29:51;13.6;;;3.9;;
6561;SDS011;3314;50.890;4.722;2023-04-08T02:31:53;14.7;;;4.7;;
6561;SDS011;3314;50.890;4.722;2023-04-08T02:33:53;23.8;;;5.0;;
6561;SDS011;3314;50.890;4.722;2023-04-08T02:35:55;15.0;;;3.8;;
6561;SDS011;3314;50.890;4.722;2023-04-08T02:37:55;19.5;;;5.0;;
6561;SDS011;3314;50.890;4.722;2023-04-08T02:39:55;18.3;;;4.4;;
6561;SDS011;3314;50.890;4.722;2023-04-08T02:41:55;17.7;;;4.0;;
6561;SDS011;3314;50.890;4.722;2023-04-08T02:43:55;18.9;;;5.0;;
6561;SDS011;3314;50.890;4.722;2023-04-08T02:45:54;17.4;;;4.9;;
6561;SDS011;3314;50.890;4.722;2023-04-08T02:47:54;17.4;;;5.5;;
6561;SDS011;3314;50.890;4.722;2023-04-08T02:49:54;18.9;;;5.2;;
6561;SDS011;3314;50.890;4.722;2023-04-08T02:51:54;19.5;;;6.3;;
6561;SDS011;3314;50.890;4.722;2023-04-08T02:53:54;18.6;;;4.8;;
6561;SDS011;3314;50.890;4.722;2023-04-08T02:55:54;17.7;;;5.3;;
6561;SDS011;3314;50.890;4.722;2023-04-08T02:57:54;17.6;;;4.6;;
6561;SDS011;3314;50.890;4.722;2023-04-08T02:59:53;19.3;;;5.7;;
6561;SDS011;3314;50.890;4.722;2023-04-08T03:01:53;20.6;;;4.7;;
6561;SDS011;3314;50.890;4.722;2023-04-08T03:03:53;12.1;;;5.1;;
6561;SDS011;3314;50.890;4.722;2023-04-08T03:05:52;19.3;;;4.5;;
6561;SDS011;3314;50.890;4.722;2023-04-08T03:07:52;25.1;;;4.8;;
6561;SDS011;3314;50.890;4.722;2023-04-08T03:09:53;22.5;;;5.4;;
6561;SDS011;3314;50.890;4.722;2023-04-08T03:11:42;18.8;;;5.0;;
6561;SDS011;3314;50.890;4.722;2023-04-08T03:13:41;17.5;;;5.1;;
6561;SDS011;3314;50.890;4.722;2023-04-08T03:15:41;17.1;;;5.8;;
6561;SDS011;3314;50.890;4.722;2023-04-08T03:17:41;20.5;;;5.2;;
6561;SDS011;3314;50.890;4.722;2023-04-08T03:19:40;18.4;;;6.3;;
6561;SDS011;3314;50.890;4.722;2023-04-08T03:21:40;16.0;;;5.5;;
6561;SDS011;3314;50.890;4.722;2023-04-08T03:23:40;13.1;;;5.1;;
6561;SDS011;3314;50.890;4.722;2023-04-08T03:25:40;19.5;;;5.4;;
6561;SDS011;3314;50.890;4.722;2023-04-08T03:27:39;15.2;;;5.3;;
6561;SDS011;3314;50.890;4.722;2023-04-08T03:29:39;16.6;;;5.8;;
6561;SDS011;3314;50.890;4.722;2023-04-08T03:31:39;22.6;;;6.7;;
6561;SDS011;3314;50.890;4.722;2023-04-08T03:33:38;17.4;;;5.5;;
6561;SDS011;3314;50.890;4.722;2023-04-08T03:35:38;17.5;;;5.5;;
6561;SDS011;3314;50.890;4.722;2023-04-08T03:37:38;16.0;;;5.3;;
6561;SDS011;3314;50.890;4.722;2023-04-08T03:39:38;21.6;;;5.8;;
6561;SDS011;3314;50.890;4.722;2023-04-08T03:41:37;25.7;;;6.9;;
6561;SDS011;3314;50.890;4.722;2023-04-08T03:43:37;16.5;;;6.2;;
6561;SDS011;3314;50.890;4.722;2023-04-08T03:45:37;18.7;;;5.8;;
6561;SDS011;3314;50.890;4.722;2023-04-08T03:47:36;18.5;;;6.4;;
6561;SDS011;3314;50.890;4.722;2023-04-08T03:49:36;18.4;;;5.3;;
6561;SDS011;3314;50.890;4.722;2023-04-08T03:51:36;18.4;;;5.3;;
6561;SDS011;3314;50.890;4.722;2023-04-08T03:53:35;21.0;;;5.4;;
6561;SDS011;3314;50.890;4.722;2023-04-08T03:55:35;21.1;;;5.3;;
6561;SDS011;3314;50.890;4.722;2023-04-08T03:57:35;21.2;;;5.5;;
6561;SDS011;3314;50.890;4.722;2023-04-08T03:59:35;17.6;;;5.1;;
6561;SDS011;3314;50.890;4.722;2023-04-08T04:01:35;20.5;;;5.9;;
6561;SDS011;3314;50.890;4.722;2023-04-08T04:03:35;17.5;;;4.9;;
6561;SDS011;3314;50.890;4.722;2023-04-08T04:05:34;21.1;;;5.1;;
6561;SDS011;3314;50.890;4.722;2023-04-08T04:07:34;16.3;;;6.2;;
6561;SDS011;3314;50.890;4.722;2023-04-08T04:09:34;20.2;;;5.8;;
6561;SDS011;3314;50.890;4.722;2023-04-08T04:11:34;18.6;;;5.0;;
6561;SDS011;3314;50.890;4.722;2023-04-08T04:13:33;21.8;;;5.6;;
6561;SDS011;3314;50.890;4.722;2023-04-08T04:15:34;19.5;;;6.0;;
6561;SDS011;3314;50.890;4.722;2023-04-08T04:17:36;17.3;;;5.5;;
6561;SDS011;3314;50.890;4.722;2023-04-08T04:19:36;21.8;;;6.7;;
6561;SDS011;3314;50.890;4.722;2023-04-08T04:21:35;20.2;;;6.3;;
6561;SDS011;3314;50.890;4.722;2023-04-08T04:23:35;19.6;;;5.8;;
6561;SDS011;3314;50.890;4.722;2023-04-08T04:25:35;25.7;;;5.6;;
6561;SDS011;3314;50.890;4.722;2023-04-08T04:27:36;20.4;;;5.6;;
6561;SDS011;3314;50.890;4.722;2023-04-08T04:29:35;21.3;;;5.5;;
6561;SDS011;3314;50.890;4.722;2023-04-08T04:31:35;24.2;;;7.2;;
6561;SDS011;3314;50.890;4.722;2023-04-08T04:33:35;18.2;;;5.5;;
6561;SDS011;3314;50.890;4.722;2023-04-08T04:35:35;19.2;;;6.0;;
6561;SDS011;3314;50.890;4.722;2023-04-08T04:37:34;22.6;;;6.3;;
6561;SDS011;3314;50.890;4.722;2023-04-08T04:39:34;23.3;;;6.4;;
6561;SDS011;3314;50.890;4.722;2023-04-08T04:41:38;18.2;;;5.7;;
6561;SDS011;3314;50.890;4.722;2023-04-08T04:43:26;20.4;;;6.2;;
6561;SDS011;3314;50.890;4.722;2023-04-08T04:45:26;19.2;;;5.6;;
6561;SDS011;3314;50.890;4.722;2023-04-08T04:47:25;22.7;;;6.7;;
6561;SDS011;3314;50.890;4.722;2023-04-08T04:49:25;21.9;;;6.4;;
6561;SDS011;3314;50.890;4.722;2023-04-08T04:51:26;22.3;;;6.1;;
6561;SDS011;3314;50.890;4.722;2023-04-08T04:53:26;19.9;;;6.2;;
6561;SDS011;3314;50.890;4.722;2023-04-08T04:55:26;20.7;;;4.9;;
6561;SDS011;3314;50.890;4.722;2023-04-08T04:57:25;19.7;;;6.5;;
6561;SDS011;3314;50.890;4.722;2023-04-08T04:59:25;26.7;;;7.4;;
6561;SDS011;3314;50.890;4.722;2023-04-08T05:01:25;17.4;;;6.3;;
6561;SDS011;3314;50.890;4.722;2023-04-08T05:03:25;22.0;;;6.7;;
6561;SDS011;3314;50.890;4.722;2023-04-08T05:05:25;19.6;;;6.0;;
6561;SDS011;3314;50.890;4.722;2023-04-08T05:07:25;22.1;;;6.3;;
6561;SDS011;3314;50.890;4.722;2023-04-08T05:09:24;19.8;;;5.9;;
6561;SDS011;3314;50.890;4.722;2023-04-08T05:11:24;19.8;;;6.9;;
6561;SDS011;3314;50.890;4.722;2023-04-08T05:13:24;19.7;;;6.5;;
6561;SDS011;3314;50.890;4.722;2023-04-08T05:15:24;22.5;;;6.5;;
6561;SDS011;3314;50.890;4.722;2023-04-08T05:17:23;15.9;;;5.8;;
6561;SDS011;3314;50.890;4.722;2023-04-08T05:19:23;17.1;;;6.4;;
6561;SDS011;3314;50.890;4.722;2023-04-08T05:21:23;19.2;;;6.5;;
6561;SDS011;3314;50.890;4.722;2023-04-08T05:23:23;24.8;;;7.1;;
6561;SDS011;3314;50.890;4.722;2023-04-08T05:25:22;20.5;;;7.0;;
6561;SDS011;3314;50.890;4.722;2023-04-08T05:27:22;27.7;;;7.9;;
6561;SDS011;3314;50.890;4.722;2023-04-08T05:29:22;22.0;;;8.2;;
6561;SDS011;3314;50.890;4.722;2023-04-08T05:31:22;24.0;;;7.2;;
6561;SDS011;3314;50.890;4.722;2023-04-08T05:33:22;24.9;;;8.0;;
6561;SDS011;3314;50.890;4.722;2023-04-08T05:35:21;24.9;;;7.6;;
6561;SDS011;3314;50.890;4.722;2023-04-08T05:37:21;30.2;;;8.1;;
6561;SDS011;3314;50.890;4.722;2023-04-08T05:39:21;22.3;;;7.9;;
6561;SDS011;3314;50.890;4.722;2023-04-08T05:41:20;16.9;;;6.9;;
6561;SDS011;3314;50.890;4.722;2023-04-08T05:43:20;27.7;;;8.1;;
6561;SDS011;3314;50.890;4.722;2023-04-08T05:45:20;23.5;;;8.9;;
6561;SDS011;3314;50.890;4.722;2023-04-08T05:47:20;25.6;;;8.1;;
6561;SDS011;3314;50.890;4.722;2023-04-08T05:49:19;22.5;;;8.3;;
6561;SDS011;3314;50.890;4.722;2023-04-08T05:51:19;30.2;;;8.9;;
6561;SDS011;3314;50.890;4.722;2023-04-08T05:53:19;23.9;;;8.5;;
6561;SDS011;3314;50.890;4.722;2023-04-08T05:55:19;25.1;;;8.2;;
6561;SDS011;3314;50.890;4.722;2023-04-08T05:57:18;24.8;;;8.5;;
6561;SDS011;3314;50.890;4.722;2023-04-08T05:59:18;27.6;;;8.7;;
6561;SDS011;3314;50.890;4.722;2023-04-08T06:01:18;20.3;;;8.0;;
6561;SDS011;3314;50.890;4.722;2023-04-08T06:03:17;21.6;;;8.6;;
6561;SDS011;3314;50.890;4.722;2023-04-08T06:05:18;29.0;;;9.1;;
6561;SDS011;3314;50.890;4.722;2023-04-08T06:07:18;31.3;;;9.6;;
6561;SDS011;3314;50.890;4.722;2023-04-08T06:09:17;27.9;;;8.2;;
6561;SDS011;3314;50.890;4.722;2023-04-08T06:11:17;27.5;;;9.2;;
6561;SDS011;3314;50.890;4.722;2023-04-08T06:13:17;27.8;;;8.6;;
6561;SDS011;3314;50.890;4.722;2023-04-08T06:15:17;29.6;;;9.6;;
6561;SDS011;3314;50.890;4.722;2023-04-08T06:17:17;28.6;;;9.8;;
6561;SDS011;3314;50.890;4.722;2023-04-08T06:19:16;26.1;;;8.2;;
6561;SDS011;3314;50.890;4.722;2023-04-08T06:21:16;26.5;;;9.6;;
6561;SDS011;3314;50.890;4.722;2023-04-08T06:23:16;26.9;;;8.6;;
6561;SDS011;3314;50.890;4.722;2023-04-08T06:25:16;37.9;;;11.4;;
6561;SDS011;3314;50.890;4.722;2023-04-08T06:27:16;29.4;;;10.7;;
6561;SDS011;3314;50.890;4.722;2023-04-08T06:29:15;28.1;;;9.4;;
6561;SDS011;3314;50.890;4.722;2023-04-08T06:31:15;25.0;;;9.3;;
6561;SDS011;3314;50.890;4.722;2023-04-08T06:33:15;25.8;;;9.7;;
6561;SDS011;3314;50.890;4.722;2023-04-08T06:35:15;30.0;;;9.3;;
6561;SDS011;3314;50.890;4.722;2023-04-08T06:37:14;24.1;;;8.6;;
6561;SDS011;3314;50.890;4.722;2023-04-08T06:39:16;27.0;;;9.4;;
6561;SDS011;3314;50.890;4.722;2023-04-08T06:41:16;20.9;;;8.9;;
6561;SDS011;3314;50.890;4.722;2023-04-08T06:43:15;23.8;;;9.0;;
6561;SDS011;3314;50.890;4.722;2023-04-08T06:45:15;33.0;;;10.4;;
6561;SDS011;3314;50.890;4.722;2023-04-08T06:47:16;31.6;;;10.5;;
6561;SDS011;3314;50.890;4.722;2023-04-08T06:49:06;28.4;;;11.4;;
6561;SDS011;3314;50.890;4.722;2023-04-08T06:51:07;24.4;;;10.0;;
6561;SDS011;3314;50.890;4.722;2023-04-08T06:53:06;31.5;;;11.0;;
6561;SDS011;3314;50.890;4.722;2023-04-08T06:55:06;25.5;;;9.9;;
6561;SDS011;3314;50.890;4.722;2023-04-08T06:57:06;31.3;;;10.2;;
6561;SDS011;3314;50.890;4.722;2023-04-08T06:59:06;33.7;;;10.7;;
6561;SDS011;3314;50.890;4.722;2023-04-08T07:01:06;28.1;;;10.6;;
6561;SDS011;3314;50.890;4.722;2023-04-08T07:03:06;31.9;;;11.0;;
6561;SDS011;3314;50.890;4.722;2023-04-08T07:05:06;29.7;;;11.1;;
6561;SDS011;3314;50.890;4.722;2023-04-08T07:07:06;29.4;;;10.1;;
6561;SDS011;3314;50.890;4.722;2023-04-08T07:09:06;26.1;;;10.4;;
6561;SDS011;3314;50.890;4.722;2023-04-08T07:11:07;37.7;;;11.5;;
6561;SDS011;3314;50.890;4.722;2023-04-08T07:13:06;30.0;;;12.7;;
6561;SDS011;3314;50.890;4.722;2023-04-08T07:15:07;29.8;;;12.2;;
6561;SDS011;3314;50.890;4.722;2023-04-08T07:17:06;30.8;;;11.4;;
6561;SDS011;3314;50.890;4.722;2023-04-08T07:19:06;33.7;;;12.5;;
6561;SDS011;3314;50.890;4.722;2023-04-08T07:21:06;33.3;;;11.5;;
6561;SDS011;3314;50.890;4.722;2023-04-08T07:23:05;38.7;;;11.9;;
6561;SDS011;3314;50.890;4.722;2023-04-08T07:25:05;29.7;;;12.2;;
6561;SDS011;3314;50.890;4.722;2023-04-08T07:27:05;27.4;;;11.5;;
6561;SDS011;3314;50.890;4.722;2023-04-08T07:29:05;30.2;;;11.5;;
6561;SDS011;3314;50.890;4.722;2023-04-08T07:31:13;28.2;;;12.2;;
6561;SDS011;3314;50.890;4.722;2023-04-08T07:33:01;29.5;;;10.8;;
6561;SDS011;3314;50.890;4.722;2023-04-08T07:35:01;30.4;;;12.2;;
6561;SDS011;3314;50.890;4.722;2023-04-08T07:37:00;32.0;;;12.6;;
6561;SDS011;3314;50.890;4.722;2023-04-08T07:39:00;29.1;;;11.3;;
6561;SDS011;3314;50.890;4.722;2023-04-08T07:41:00;31.7;;;13.0;;
6561;SDS011;3314;50.890;4.722;2023-04-08T07:43:00;35.5;;;13.2;;
6561;SDS011;3314;50.890;4.722;2023-04-08T07:45:00;31.0;;;12.7;;
6561;SDS011;3314;50.890;4.722;2023-04-08T07:46:59;28.7;;;11.8;;
6561;SDS011;3314;50.890;4.722;2023-04-08T07:48:59;27.9;;;10.9;;
6561;SDS011;3314;50.890;4.722;2023-04-08T07:51:02;31.0;;;11.2;;
6561;SDS011;3314;50.890;4.722;2023-04-08T07:53:01;27.6;;;10.4;;
6561;SDS011;3314;50.890;4.722;2023-04-08T07:55:01;25.4;;;9.9;;
6561;SDS011;3314;50.890;4.722;2023-04-08T07:57:01;35.0;;;11.3;;
6561;SDS011;3314;50.890;4.722;2023-04-08T07:59:01;24.2;;;10.0;;
6561;SDS011;3314;50.890;4.722;2023-04-08T08:01:01;29.4;;;9.8;;
6561;SDS011;3314;50.890;4.722;2023-04-08T08:03:01;26.3;;;8.9;;
6561;SDS011;3314;50.890;4.722;2023-04-08T08:05:00;18.5;;;8.6;;
6561;SDS011;3314;50.890;4.722;2023-04-08T08:07:00;20.9;;;8.0;;
6561;SDS011;3314;50.890;4.722;2023-04-08T08:09:00;23.5;;;9.0;;
6561;SDS011;3314;50.890;4.722;2023-04-08T08:11:00;24.0;;;8.9;;
6561;SDS011;3314;50.890;4.722;2023-04-08T08:12:59;21.0;;;8.0;;
6561;SDS011;3314;50.890;4.722;2023-04-08T08:14:59;22.0;;;8.6;;
6561;SDS011;3314;50.890;4.722;2023-04-08T08:16:59;23.6;;;9.3;;
6561;SDS011;3314;50.890;4.722;2023-04-08T08:18:58;28.0;;;10.0;;
6561;SDS011;3314;50.890;4.722;2023-04-08T08:21:00;28.7;;;9.1;;
6561;SDS011;3314;50.890;4.722;2023-04-08T08:22:50;23.1;;;8.6;;
6561;SDS011;3314;50.890;4.722;2023-04-08T08:24:53;24.0;;;9.0;;
6561;SDS011;3314;50.890;4.722;2023-04-08T08:26:53;20.9;;;8.3;;
6561;SDS011;3314;50.890;4.722;2023-04-08T08:28:53;23.9;;;8.6;;
6561;SDS011;3314;50.890;4.722;2023-04-08T08:30:52;21.6;;;8.2;;
6561;SDS011;3314;50.890;4.722;2023-04-08T08:32:52;24.1;;;8.3;;
6561;SDS011;3314;50.890;4.722;2023-04-08T08:34:52;24.7;;;8.7;;
6561;SDS011;3314;50.890;4.722;2023-04-08T08:36:52;22.8;;;8.0;;
6561;SDS011;3314;50.890;4.722;2023-04-08T08:38:53;19.5;;;7.5;;
6561;SDS011;3314;50.890;4.722;2023-04-08T08:40:53;19.2;;;6.9;;
6561;SDS011;3314;50.890;4.722;2023-04-08T08:42:53;18.3;;;6.1;;
6561;SDS011;3314;50.890;4.722;2023-04-08T08:44:53;14.1;;;5.8;;
6561;SDS011;3314;50.890;4.722;2023-04-08T08:46:53;13.3;;;5.9;;
6561;SDS011;3314;50.890;4.722;2023-04-08T08:48:52;14.6;;;6.5;;
6561;SDS011;3314;50.890;4.722;2023-04-08T08:50:52;20.6;;;5.8;;
6561;SDS011;3314;50.890;4.722;2023-04-08T08:52:52;18.4;;;5.6;;
6561;SDS011;3314;50.890;4.722;2023-04-08T08:54:56;16.6;;;6.3;;
6561;SDS011;3314;50.890;4.722;2023-04-08T08:56:44;17.2;;;5.8;;
6561;SDS011;3314;50.890;4.722;2023-04-08T08:58:44;19.8;;;6.0;;
6561;SDS011;3314;50.890;4.722;2023-04-08T09:00:44;18.3;;;5.4;;
6561;SDS011;3314;50.890;4.722;2023-04-08T09:02:44;14.9;;;4.9;;
6561;SDS011;3314;50.890;4.722;2023-04-08T09:04:43;15.4;;;5.6;;
6561;SDS011;3314;50.890;4.722;2023-04-08T09:06:43;16.0;;;6.0;;
6561;SDS011;3314;50.890;4.722;2023-04-08T09:08:43;18.9;;;6.3;;
6561;SDS011;3314;50.890;4.722;2023-04-08T09:10:42;14.3;;;5.5;;
6561;SDS011;3314;50.890;4.722;2023-04-08T09:12:52;15.6;;;5.8;;
6561;SDS011;3314;50.890;4.722;2023-04-08T09:14:41;17.9;;;6.3;;
6561;SDS011;3314;50.890;4.722;2023-04-08T09:16:41;17.9;;;7.4;;
6561;SDS011;3314;50.890;4.722;2023-04-08T09:18:44;20.0;;;7.0;;
6561;SDS011;3314;50.890;4.722;2023-04-08T09:20:51;16.5;;;6.3;;
6561;SDS011;3314;50.890;4.722;2023-04-08T09:22:56;17.5;;;6.3;;
6561;SDS011;3314;50.890;4.722;2023-04-08T09:24:45;20.2;;;6.5;;
6561;SDS011;3314;50.890;4.722;2023-04-08T09:26:45;17.9;;;6.6;;
6561;SDS011;3314;50.890;4.722;2023-04-08T09:28:57;19.3;;;6.9;;
6561;SDS011;3314;50.890;4.722;2023-04-08T09:30:45;17.5;;;6.5;;
6561;SDS011;3314;50.890;4.722;2023-04-08T09:32:47;16.1;;;6.4;;
6561;SDS011;3314;50.890;4.722;2023-04-08T09:34:47;13.4;;;5.6;;
6561;SDS011;3314;50.890;4.722;2023-04-08T09:36:48;15.0;;;6.6;;
6561;SDS011;3314;50.890;4.722;2023-04-08T09:38:38;15.3;;;6.0;;
6561;SDS011;3314;50.890;4.722;2023-04-08T09:40:38;15.2;;;6.2;;
6561;SDS011;3314;50.890;4.722;2023-04-08T09:42:39;14.8;;;5.3;;
6561;SDS011;3314;50.890;4.722;2023-04-08T09:44:39;17.2;;;5.6;;
6561;SDS011;3314;50.890;4.722;2023-04-08T09:46:43;14.8;;;5.0;;
6561;SDS011;3314;50.890;4.722;2023-04-08T09:48:48;17.3;;;5.2;;
6561;SDS011;3314;50.890;4.722;2023-04-08T09:50:39;13.1;;;4.9;;
6561;SDS011;3314;50.890;4.722;2023-04-08T09:52:43;14.2;;;5.6;;
6561;SDS011;3314;50.890;4.722;2023-04-08T09:54:45;16.8;;;5.1;;
6561;SDS011;3314;50.890;4.722;2023-04-08T09:56:38;12.1;;;5.1;;
6561;SDS011;3314;50.890;4.722;2023-04-08T09:58:40;13.5;;;4.6;;
6561;SDS011;3314;50.890;4.722;2023-04-08T10:00:45;13.8;;;4.9;;
6561;SDS011;3314;50.890;4.722;2023-04-08T10:02:37;12.9;;;4.9;;
6561;SDS011;3314;50.890;4.722;2023-04-08T10:04:40;12.2;;;4.8;;
6561;SDS011;3314;50.890;4.722;2023-04-08T10:06:40;14.8;;;5.5;;
6561;SDS011;3314;50.890;4.722;2023-04-08T10:08:41;19.3;;;5.5;;
6561;SDS011;3314;50.890;4.722;2023-04-08T10:10:41;14.0;;;4.1;;
6561;SDS011;3314;50.890;4.722;2023-04-08T10:12:40;11.6;;;4.7;;
6561;SDS011;3314;50.890;4.722;2023-04-08T10:14:40;14.0;;;4.0;;
6561;SDS011;3314;50.890;4.722;2023-04-08T10:16:40;11.9;;;3.9;;
6561;SDS011;3314;50.890;4.722;2023-04-08T10:18:40;12.8;;;4.3;;
6561;SDS011;3314;50.890;4.722;2023-04-08T10:20:40;12.1;;;4.7;;
6561;SDS011;3314;50.890;4.722;2023-04-08T10:22:47;14.2;;;5.2;;
6561;SDS011;3314;50.890;4.722;2023-04-08T10:24:35;14.7;;;4.8;;
6561;SDS011;3314;50.890;4.722;2023-04-08T10:26:36;14.5;;;4.2;;
6561;SDS011;3314;50.890;4.722;2023-04-08T10:28:36;14.0;;;4.7;;
6561;SDS011;3314;50.890;4.722;2023-04-08T10:30:43;17.0;;;5.1;;
6561;SDS011;3314;50.890;4.722;2023-04-08T10:32:31;13.2;;;5.0;;
6561;SDS011;3314;50.890;4.722;2023-04-08T10:34:49;14.1;;;5.0;;
6561;SDS011;3314;50.890;4.722;2023-04-08T10:36:37;15.5;;;5.2;;
6561;SDS011;3314;50.890;4.722;2023-04-08T10:38:37;14.8;;;5.5;;
6561;SDS011;3314;50.890;4.722;2023-04-08T10:40:38;14.4;;;5.8;;
6561;SDS011;3314;50.890;4.722;2023-04-08T10:42:38;19.0;;;6.1;;
6561;SDS011;3314;50.890;4.722;2023-04-08T10:44:43;13.5;;;5.1;;
6561;SDS011;3314;50.890;4.722;2023-04-08T10:46:36;15.9;;;5.1;;
6561;SDS011;3314;50.890;4.722;2023-04-08T10:48:36;13.2;;;5.1;;
6561;SDS011;3314;50.890;4.722;2023-04-08T10:50:36;12.4;;;5.0;;
6561;SDS011;3314;50.890;4.722;2023-04-08T10:52:35;13.6;;;5.2;;
6561;SDS011;3314;50.890;4.722;2023-04-08T10:54:32;16.3;;;5.3;;
6561;SDS011;3314;50.890;4.722;2023-04-08T10:56:31;16.1;;;5.9;;
6561;SDS011;3314;50.890;4.722;2023-04-08T10:58:31;14.2;;;4.8;;
6561;SDS011;3314;50.890;4.722;2023-04-08T11:00:32;12.5;;;5.0;;
6561;SDS011;3314;50.890;4.722;2023-04-08T11:02:32;16.5;;;5.7;;
6561;SDS011;3314;50.890;4.722;2023-04-08T11:04:32;14.1;;;5.5;;
6561;SDS011;3314;50.890;4.722;2023-04-08T11:06:35;15.5;;;5.0;;
6561;SDS011;3314;50.890;4.722;2023-04-08T11:08:36;14.1;;;5.5;;
6561;SDS011;3314;50.890;4.722;2023-04-08T11:10:25;13.3;;;4.1;;
6561;SDS011;3314;50.890;4.722;2023-04-08T11:12:27;13.0;;;5.3;;
6561;SDS011;3314;50.890;4.722;2023-04-08T11:14:27;15.1;;;5.6;;
6561;SDS011;3314;50.890;4.722;2023-04-08T11:16:28;13.8;;;5.3;;
6561;SDS011;3314;50.890;4.722;2023-04-08T11:18:29;19.4;;;6.4;;
6561;SDS011;3314;50.890;4.722;2023-04-08T11:20:28;15.9;;;5.2;;
6561;SDS011;3314;50.890;4.722;2023-04-08T11:22:29;12.3;;;5.0;;
6561;SDS011;3314;50.890;4.722;2023-04-08T11:24:28;17.7;;;5.6;;
6561;SDS011;3314;50.890;4.722;2023-04-08T11:26:28;16.5;;;5.5;;
6561;SDS011;3314;50.890;4.722;2023-04-08T11:28:29;16.9;;;6.8;;
6561;SDS011;3314;50.890;4.722;2023-04-08T11:30:29;17.2;;;6.6;;
6561;SDS011;3314;50.890;4.722;2023-04-08T11:32:29;15.5;;;5.8;;
6561;SDS011;3314;50.890;4.722;2023-04-08T11:34:28;20.1;;;6.7;;
6561;SDS011;3314;50.890;4.722;2023-04-08T11:36:28;19.6;;;6.9;;
6561;SDS011;3314;50.890;4.722;2023-04-08T11:38:28;15.2;;;6.7;;
6561;SDS011;3314;50.890;4.722;2023-04-08T11:40:28;17.4;;;6.4;;
6561;SDS011;3314;50.890;4.722;2023-04-08T11:42:28;14.4;;;5.5;;
6561;SDS011;3314;50.890;4.722;2023-04-08T11:44:30;13.8;;;5.9;;
6561;SDS011;3314;50.890;4.722;2023-04-08T11:46:30;17.0;;;6.1;;
6561;SDS011;3314;50.890;4.722;2023-04-08T11:48:33;15.1;;;6.1;;
6561;SDS011;3314;50.890;4.722;2023-04-08T11:50:22;16.9;;;6.5;;
6561;SDS011;3314;50.890;4.722;2023-04-08T11:52:22;19.1;;;6.6;;
6561;SDS011;3314;50.890;4.722;2023-04-08T11:54:25;16.7;;;6.5;;
6561;SDS011;3314;50.890;4.722;2023-04-08T11:56:25;16.7;;;5.8;;
6561;SDS011;3314;50.890;4.722;2023-04-08T11:58:25;17.4;;;6.2;;
6561;SDS011;3314;50.890;4.722;2023-04-08T12:00:27;14.9;;;5.9;;
6561;SDS011;3314;50.890;4.722;2023-04-08T12:02:27;16.0;;;5.9;;
6561;SDS011;3314;50.890;4.722;2023-04-08T12:04:26;17.6;;;6.9;;
6561;SDS011;3314;50.890;4.722;2023-04-08T12:06:26;16.4;;;7.6;;
6561;SDS011;3314;50.890;4.722;2023-04-08T12:08:27;18.7;;;6.9;;
6561;SDS011;3314;50.890;4.722;2023-04-08T12:10:27;17.7;;;7.6;;
6561;SDS011;3314;50.890;4.722;2023-04-08T12:12:27;17.2;;;6.9;;
6561;SDS011;3314;50.890;4.722;2023-04-08T12:14:26;18.4;;;7.1;;
6561;SDS011;3314;50.890;4.722;2023-04-08T12:16:26;17.5;;;7.7;;
6561;SDS011;3314;50.890;4.722;2023-04-08T12:18:26;20.2;;;7.8;;
6561;SDS011;3314;50.890;4.722;2023-04-08T12:20:25;23.3;;;8.9;;
6561;SDS011;3314;50.890;4.722;2023-04-08T12:22:25;22.7;;;8.5;;
6561;SDS011;3314;50.890;4.722;2023-04-08T12:24:26;25.3;;;8.7;;
6561;SDS011;3314;50.890;4.722;2023-04-08T12:26:15;21.1;;;8.2;;
6561;SDS011;3314;50.890;4.722;2023-04-08T12:28:15;21.3;;;9.2;;
6561;SDS011;3314;50.890;4.722;2023-04-08T12:30:15;21.0;;;8.4;;
6561;SDS011;3314;50.890;4.722;2023-04-08T12:32:15;23.6;;;8.6;;
6561;SDS011;3314;50.890;4.722;2023-04-08T12:34:14;32.9;;;8.7;;